Time;durP1;ratioP1;P1;durP2;ratioP2;P2;SDS_P1;SDS_P2;PMS_P1;PMS_P2;Temp;Humidity;BMP_temperature;BMP_pressure;BME280_temperature;BME280_humidity;BME280_pressure;Samples;Min_cycle;Max_cycle;Signal;HPM_P1;HPM_P2
2021/06/29 00:01:13;;;;;;;7.30;4.07;;;614.80;1664.00;;;;;;5057667;28;20499;-60
2021/06/29 00:03:40;;;;;;;6.05;3.70;;;614.80;1664.00;;;;;;5057226;28;20031;-61
2021/06/29 00:06:06;;;;;;;7.72;4.45;;;614.80;1664.00;;;;;;5075485;28;20048;-61
2021/06/29 00:08:32;;;;;;;13.35;4.70;;;614.80;1689.60;;;;;;5057306;28;20028;-61
2021/06/29 00:10:58;;;;;;;8.75;4.30;;;614.70;1740.80;;;;;;5075407;28;20028;-62
2021/06/29 00:13:23;;;;;;;9.95;4.65;;;614.70;1766.40;;;;;;5075213;28;20496;-62
2021/06/29 00:15:49;;;;;;;8.63;4.75;;;614.70;1766.40;;;;;;5075055;28;20111;-59
2021/06/29 00:18:15;;;;;;;9.98;4.60;;;614.60;1792.00;;;;;;5074881;28;20033;-59
2021/06/29 00:20:42;;;;;;;9.38;4.68;;;614.50;1817.60;;;;;;5075019;28;20017;-60
2021/06/29 00:23:07;;;;;;;9.93;4.93;;;614.50;1817.60;;;;;;5074964;28;20033;-60
2021/06/29 00:25:33;;;;;;;10.95;4.60;;;614.40;1817.60;;;;;;5074905;28;20031;-60
2021/06/29 00:27:59;;;;;;;11.85;4.63;;;614.40;1817.60;;;;;;5057088;28;20025;-61
2021/06/29 00:30:25;;;;;;;11.95;4.95;;;589.70;1817.60;;;;;;5074799;28;20351;-60
2021/06/29 00:32:51;;;;;;;9.57;4.88;;;589.70;1817.60;;;;;;5074555;28;20470;-60
2021/06/29 00:35:17;;;;;;;9.57;5.28;;;589.60;1817.60;;;;;;5074736;28;20023;-60
2021/06/29 00:37:43;;;;;;;7.97;5.07;;;589.60;1817.60;;;;;;5074847;28;20025;-60
2021/06/29 00:40:10;;;;;;;8.43;5.32;;;589.60;1817.60;;;;;;5074654;28;20371;-60
2021/06/29 00:42:36;;;;;;;12.55;5.95;;;589.60;1817.60;;;;;;5074009;28;20135;-60
2021/06/29 00:45:04;;;;;;;13.95;6.25;;;589.50;1817.60;;;;;;5074559;28;20378;-60
2021/06/29 00:47:30;;;;;;;9.38;5.55;;;589.40;1817.60;;;;;;5074287;28;20032;-59
2021/06/29 00:49:56;;;;;;;12.45;6.07;;;589.40;1843.20;;;;;;5074158;28;20028;-60
2021/06/29 00:52:41;;;;;;;12.25;6.00;;;589.40;1843.20;;;;;;5074376;28;20086;-59
2021/06/29 00:55:07;;;;;;;12.48;7.35;;;589.30;1868.80;;;;;;5074301;28;20021;-59
2021/06/29 00:57:36;;;;;;;13.32;6.32;;;589.30;1843.20;;;;;;5074112;28;20060;-59
2021/06/29 01:00:05;;;;;;;10.85;5.38;;;589.30;1843.20;;;;;;5074301;28;20020;-60
2021/06/29 01:02:31;;;;;;;11.68;5.63;;;589.30;1868.80;;;;;;5073407;28;20036;-60
2021/06/29 01:04:57;;;;;;;10.23;5.65;;;589.30;1868.80;;;;;;5073735;28;20481;-60
2021/06/29 01:07:22;;;;;;;11.52;5.80;;;589.30;1868.80;;;;;;5073840;28;20072;-60
2021/06/29 01:09:48;;;;;;;10.60;5.60;;;589.30;1868.80;;;;;;5073958;28;20446;-59
2021/06/29 01:12:14;;;;;;;11.60;5.60;;;589.30;1868.80;;;;;;5074030;28;20614;-59
2021/06/29 01:14:41;;;;;;;10.98;6.00;;;589.30;1868.80;;;;;;5073990;28;20020;-60
2021/06/29 01:17:08;;;;;;;10.52;6.03;;;589.20;1868.80;;;;;;5061036;28;20049;-61
2021/06/29 01:19:48;;;;;;;10.35;5.40;;;589.20;1868.80;;;;;;5044432;28;20111;-60
2021/06/29 01:22:15;;;;;;;9.70;5.40;;;589.20;1868.80;;;;;;5062022;28;20041;-60
2021/06/29 01:24:43;;;;;;;10.25;5.88;;;589.20;1894.40;;;;;;5061100;28;20027;-59
2021/06/29 01:27:22;;;;;;;10.35;5.90;;;589.10;1894.40;;;;;;5061471;28;20092;-60
2021/06/29 01:32:24;;;;;;;9.82;5.40;;;589.10;1920.00;;;;;;5062320;28;20104;-60
2021/06/29 01:34:49;;;;;;;10.45;5.25;;;589.00;1920.00;;;;;;5061475;28;20078;-60
2021/06/29 01:37:17;;;;;;;8.15;5.30;;;589.00;1894.40;;;;;;5052686;28;20032;-60
2021/06/29 01:40:01;;;;;;;9.38;5.50;;;588.90;1920.00;;;;;;5073735;28;20030;-60
2021/06/29 01:42:27;;;;;;;10.82;6.00;;;588.90;1894.40;;;;;;5070574;28;20048;-61
2021/06/29 01:44:52;;;;;;;13.35;6.05;;;588.90;1894.40;;;;;;5063910;28;20544;-60
2021/06/29 01:47:31;;;;;;;9.52;5.57;;;588.90;1894.40;;;;;;5063982;28;20025;-60
2021/06/29 01:50:05;;;;;;;9.93;5.40;;;588.80;1894.40;;;;;;5046604;28;20021;-59
2021/06/29 01:52:31;;;;;;;8.77;5.50;;;588.80;1868.80;;;;;;5062116;28;20347;-60
2021/06/29 01:54:57;;;;;;;9.23;5.43;;;588.80;1868.80;;;;;;5062359;28;20031;-59
2021/06/29 01:57:22;;;;;;;9.77;5.15;;;588.90;1868.80;;;;;;5063687;28;20386;-60
2021/06/29 01:59:49;;;;;;;13.73;5.55;;;588.80;1894.40;;;;;;5061146;28;20017;-60
2021/06/29 02:02:15;;;;;;;12.48;5.45;;;588.80;1894.40;;;;;;5062219;28;20060;-59
2021/06/29 02:04:41;;;;;;;12.43;5.13;;;588.80;1894.40;;;;;;5063129;28;20479;-60
2021/06/29 02:07:07;;;;;;;9.15;5.43;;;588.80;1894.40;;;;;;5061189;28;20025;-59
2021/06/29 02:09:32;;;;;;;12.88;5.68;;;588.90;1843.20;;;;;;5062363;28;20024;-60
2021/06/29 02:11:58;;;;;;;10.90;5.40;;;588.80;1868.80;;;;;;5062330;28;20474;-60
2021/06/29 02:14:24;;;;;;;10.38;5.80;;;588.80;1843.20;;;;;;5061328;28;20017;-60
2021/06/29 02:16:49;;;;;;;10.13;5.20;;;588.80;1843.20;;;;;;5063694;28;20043;-60
2021/06/29 02:19:15;;;;;;;12.43;5.53;;;564.10;1843.20;;;;;;5066353;28;20070;-59
2021/06/29 02:21:41;;;;;;;12.60;5.43;;;564.10;1843.20;;;;;;5065289;28;20459;-59
2021/06/29 02:24:06;;;;;;;9.73;5.38;;;564.10;1868.80;;;;;;5067464;28;20020;-59
2021/06/29 02:26:32;;;;;;;9.95;6.05;;;564.10;1868.80;;;;;;5065855;28;20017;-59
2021/06/29 02:28:58;;;;;;;9.77;5.28;;;564.00;1894.40;;;;;;5065131;28;20020;-60
2021/06/29 02:31:24;;;;;;;12.80;5.88;;;564.10;1894.40;;;;;;5067185;28;20025;-60
2021/06/29 02:33:49;;;;;;;10.80;6.15;;;564.00;1920.00;;;;;;5065404;28;20053;-60
2021/06/29 02:36:15;;;;;;;12.27;5.72;;;564.00;1894.40;;;;;;5065895;28;20115;-60
2021/06/29 02:38:41;;;;;;;11.18;5.47;;;564.00;1920.00;;;;;;5048616;28;20025;-60
2021/06/29 02:41:07;;;;;;;13.75;6.15;;;563.90;1920.00;;;;;;5064558;28;20045;-59
2021/06/29 02:43:35;;;;;;;12.65;5.88;;;563.90;1920.00;;;;;;5066219;28;20054;-60
2021/06/29 02:46:01;;;;;;;10.10;5.93;;;563.70;1945.60;;;;;;5066671;28;20028;-60
2021/06/29 02:48:27;;;;;;;12.25;5.97;;;563.70;1945.60;;;;;;5064414;28;20021;-59
2021/06/29 02:50:52;;;;;;;8.95;5.57;;;563.80;1945.60;;;;;;5066013;28;20027;-59
2021/06/29 02:53:18;;;;;;;12.15;5.78;;;563.70;1971.20;;;;;;5066203;28;20017;-60
2021/06/29 02:55:44;;;;;;;10.40;5.72;;;563.70;1971.20;;;;;;5064168;28;20044;-59
2021/06/29 02:58:10;;;;;;;10.90;5.75;;;563.80;1971.20;;;;;;5066208;28;20121;-60
2021/06/29 03:00:36;;;;;;;11.15;6.00;;;563.70;1971.20;;;;;;5065657;28;20051;-60
2021/06/29 03:03:01;;;;;;;10.75;6.35;;;563.70;1971.20;;;;;;5064497;28;20040;-60
2021/06/29 03:05:27;;;;;;;10.25;5.90;;;563.70;1971.20;;;;;;5064466;28;20466;-60
2021/06/29 03:07:53;;;;;;;10.07;5.75;;;563.70;1996.80;;;;;;5047981;28;20127;-59
2021/06/29 03:10:19;;;;;;;10.93;5.72;;;563.70;1996.80;;;;;;5066008;28;20021;-60
2021/06/29 03:12:44;;;;;;;12.40;5.72;;;563.70;1996.80;;;;;;5063964;28;20055;-60
2021/06/29 03:15:10;;;;;;;11.77;6.10;;;563.70;1996.80;;;;;;5066086;28;20048;-60
2021/06/29 03:17:36;;;;;;;10.30;6.03;;;563.70;1996.80;;;;;;5064937;28;20418;-60
2021/06/29 03:20:04;;;;;;;9.68;5.75;;;563.80;1971.20;;;;;;5063812;28;20032;-60
2021/06/29 03:22:30;;;;;;;11.68;5.88;;;563.80;1971.20;;;;;;5064854;28;20035;-60
2021/06/29 03:24:56;;;;;;;11.10;6.22;;;563.70;1971.20;;;;;;5064714;28;20526;-60
2021/06/29 03:27:22;;;;;;;9.13;6.10;;;564.10;1971.20;;;;;;5047847;28;20494;-59
2021/06/29 03:29:47;;;;;;;13.57;5.90;;;563.90;1971.20;;;;;;5063202;28;20035;-59
2021/06/29 03:32:13;;;;;;;10.10;6.05;;;563.90;1945.60;;;;;;5065211;28;20451;-59
2021/06/29 03:34:39;;;;;;;11.18;6.20;;;564.00;1920.00;;;;;;5065421;28;20077;-60
2021/06/29 03:37:06;;;;;;;12.38;6.65;;;564.00;1920.00;;;;;;5063752;28;20155;-60
2021/06/29 03:39:33;;;;;;;13.25;6.60;;;564.00;1920.00;;;;;;5065108;28;20017;-59
2021/06/29 03:41:59;;;;;;;8.90;6.18;;;564.00;1920.00;;;;;;5064923;28;20057;-59
2021/06/29 03:44:24;;;;;;;11.98;6.43;;;564.00;1920.00;;;;;;5063912;28;20116;-60
2021/06/29 03:46:51;;;;;;;11.68;6.28;;;564.00;1920.00;;;;;;5065251;28;20398;-60
2021/06/29 03:49:16;;;;;;;14.13;6.35;;;564.00;1894.40;;;;;;5074140;28;20020;-60
2021/06/29 03:51:43;;;;;;;9.90;6.25;;;564.00;1894.40;;;;;;5075664;28;20028;-60
2021/06/29 03:54:09;;;;;;;10.38;6.28;;;564.10;1868.80;;;;;;5075369;28;20470;-60
2021/06/29 03:56:35;;;;;;;10.45;6.50;;;564.10;1868.80;;;;;;5072433;28;20043;-61
2021/06/29 03:59:03;;;;;;;11.15;6.57;;;588.80;1868.80;;;;;;5064654;28;20086;-60
2021/06/29 04:01:30;;;;;;;10.35;5.97;;;588.80;1868.80;;;;;;5062813;28;20079;-60
2021/06/29 04:03:56;;;;;;;12.85;6.22;;;589.40;1868.80;;;;;;5062996;28;20043;-60
2021/06/29 04:06:31;;;;;;;8.43;5.70;;;589.00;1868.80;;;;;;5064236;28;20104;-60
2021/06/29 04:08:58;;;;;;;11.77;6.15;;;589.00;1868.80;;;;;;5063735;28;20029;-59
2021/06/29 04:11:25;;;;;;;9.38;6.30;;;589.10;1868.80;;;;;;5062016;28;20029;-60
2021/06/29 04:13:52;;;;;;;11.02;5.88;;;589.10;1868.80;;;;;;5065661;28;20047;-60
2021/06/29 04:16:19;;;;;;;18.50;6.85;;;589.20;1868.80;;;;;;5062602;28;20666;-60
2021/06/29 04:18:45;;;;;;;46.10;8.85;;;589.20;1868.80;;;;;;5064198;28;20220;-60
2021/06/29 04:21:11;;;;;;;16.65;6.50;;;589.20;1843.20;;;;;;5062652;28;20013;-60
2021/06/29 04:23:38;;;;;;;11.38;6.47;;;589.30;1894.40;;;;;;5062628;28;20039;-60
2021/06/29 04:26:04;;;;;;;12.43;6.10;;;589.40;1843.20;;;;;;5063834;28;20458;-60
2021/06/29 04:28:30;;;;;;;9.40;5.50;;;589.40;1843.20;;;;;;5062414;28;20035;-60
2021/06/29 04:30:56;;;;;;;10.13;5.70;;;589.60;1868.80;;;;;;5062435;28;20048;-60
2021/06/29 04:33:22;;;;;;;10.27;5.93;;;589.60;1868.80;;;;;;5063753;28;20055;-60
2021/06/29 04:35:48;;;;;;;11.23;5.68;;;589.60;1868.80;;;;;;5062237;28;20029;-59
2021/06/29 04:38:14;;;;;;;10.52;5.80;;;589.70;1868.80;;;;;;5062721;28;20020;-60
2021/06/29 04:40:40;;;;;;;8.73;5.55;;;589.70;1868.80;;;;;;5063328;28;20073;-60
2021/06/29 04:43:06;;;;;;;11.73;5.72;;;614.40;1868.80;;;;;;5063043;28;20124;-60
2021/06/29 04:45:32;;;;;;;9.73;5.47;;;614.40;1868.80;;;;;;5062632;28;20535;-60
2021/06/29 04:47:58;;;;;;;10.10;6.03;;;614.50;1843.20;;;;;;5064365;28;20029;-60
2021/06/29 04:50:24;;;;;;;10.63;5.88;;;614.40;1843.20;;;;;;5062926;28;20021;-60
2021/06/29 04:52:50;;;;;;;12.40;5.95;;;614.60;1843.20;;;;;;5063149;28;20033;-59
2021/06/29 04:55:17;;;;;;;10.45;5.90;;;614.60;1817.60;;;;;;5064401;28;20021;-60
2021/06/29 04:57:44;;;;;;;11.23;5.82;;;614.60;1817.60;;;;;;5062796;28;20112;-59
2021/06/29 05:00:12;;;;;;;11.20;5.82;;;614.70;1817.60;;;;;;5063500;28;20028;-61
2021/06/29 05:02:39;;;;;;;12.07;5.88;;;614.70;1843.20;;;;;;5065348;28;20117;-61
2021/06/29 05:05:06;;;;;;;9.75;5.80;;;614.80;1843.20;;;;;;5063551;28;20028;-61
2021/06/29 05:07:31;;;;;;;21.45;6.00;;;614.90;1817.60;;;;;;5063162;28;20025;-60
2021/06/29 05:09:57;;;;;;;12.57;5.28;;;614.90;1817.60;;;;;;5065229;28;20070;-62
2021/06/29 05:12:23;;;;;;;9.40;5.20;;;615.10;1817.60;;;;;;5063295;28;20425;-61
2021/06/29 05:14:49;;;;;;;13.90;5.43;;;615.10;1766.40;;;;;;5063929;28;20048;-59
2021/06/29 05:17:15;;;;;;;9.02;5.20;;;615.20;1766.40;;;;;;5064160;28;20029;-60
2021/06/29 05:19:41;;;;;;;7.72;4.72;;;615.30;1715.20;;;;;;5064401;28;20021;-60
2021/06/29 05:22:07;;;;;;;8.48;5.40;;;615.30;1740.80;;;;;;5062609;28;20086;-59
2021/06/29 05:24:33;;;;;;;14.65;5.05;;;640.00;1715.20;;;;;;5062218;28;20024;-60
2021/06/29 05:26:58;;;;;;;9.50;4.90;;;640.10;1715.20;;;;;;5063057;28;20021;-60
2021/06/29 05:29:24;;;;;;;9.93;5.18;;;640.10;1689.60;;;;;;5044280;28;20060;-60
2021/06/29 05:31:50;;;;;;;8.57;4.43;;;640.30;1715.20;;;;;;5062654;28;20024;-60
2021/06/29 05:34:16;;;;;;;7.75;4.78;;;640.40;1689.60;;;;;;5063501;28;20377;-60
2021/06/29 05:36:42;;;;;;;6.85;4.43;;;640.50;1664.00;;;;;;5061701;28;20038;-60
2021/06/29 05:39:09;;;;;;;8.10;4.63;;;640.60;1664.00;;;;;;5067272;28;20028;-61
2021/06/29 05:41:35;;;;;;;6.53;4.63;;;640.60;1587.20;;;;;;5073389;28;20052;-60
2021/06/29 05:44:01;;;;;;;7.90;4.40;;;640.80;1587.20;;;;;;5073255;28;20036;-60
2021/06/29 05:46:27;;;;;;;7.80;4.50;;;640.90;1612.80;;;;;;5056013;28;20035;-60
2021/06/29 05:48:54;;;;;;;4.85;4.07;;;665.60;1612.80;;;;;;5072797;28;20024;-60
2021/06/29 05:51:20;;;;;;;6.07;4.03;;;665.70;1612.80;;;;;;5061762;28;20021;-60
2021/06/29 05:53:47;;;;;;;8.40;4.15;;;665.80;1587.20;;;;;;5061919;28;20055;-60
2021/06/29 05:56:14;;;;;;;6.38;4.03;;;665.90;1536.00;;;;;;5063445;28;20095;-60
2021/06/29 05:58:40;;;;;;;8.57;4.00;;;666.00;1561.60;;;;;;5061438;28;20025;-60
2021/06/29 06:01:06;;;;;;;7.05;4.00;;;666.10;1536.00;;;;;;5061951;28;20027;-60
2021/06/29 06:03:33;;;;;;;5.63;3.58;;;666.10;1536.00;;;;;;5057973;28;20059;-60
2021/06/29 06:05:58;;;;;;;7.05;3.92;;;666.30;1536.00;;;;;;5053035;28;20100;-61
2021/06/29 06:08:24;;;;;;;6.97;3.72;;;666.50;1510.40;;;;;;5053333;28;20063;-60
2021/06/29 06:10:51;;;;;;;6.18;3.40;;;691.20;1484.80;;;;;;5053254;28;20025;-60
2021/06/29 06:13:17;;;;;;;5.95;3.67;;;691.30;1484.80;;;;;;5053234;28;20155;-60
2021/06/29 06:15:43;;;;;;;6.43;3.60;;;691.50;1459.20;;;;;;5053294;28;20063;-61
2021/06/29 06:18:09;;;;;;;4.50;3.33;;;691.50;1433.60;;;;;;5053313;28;20036;-60
2021/06/29 06:20:36;;;;;;;6.53;3.50;;;691.60;1433.60;;;;;;5053105;28;20031;-63
2021/06/29 06:23:02;;;;;;;4.30;3.00;;;691.70;1459.20;;;;;;5048690;28;20040;-61
2021/06/29 06:25:28;;;;;;;4.88;3.10;;;691.90;1408.00;;;;;;5065134;28;20029;-61
2021/06/29 06:27:54;;;;;;;6.18;3.28;;;692.00;1382.40;;;;;;5053273;28;20032;-61
2021/06/29 06:30:20;;;;;;;4.97;3.35;;;692.00;1382.40;;;;;;5053437;28;20025;-61
2021/06/29 06:32:46;;;;;;;4.55;3.00;;;716.80;1408.00;;;;;;5053048;28;20029;-61
2021/06/29 06:35:13;;;;;;;6.35;3.20;;;716.90;1382.40;;;;;;5053124;28;20075;-60
2021/06/29 06:37:38;;;;;;;3.88;2.70;;;717.00;1356.80;;;;;;5053046;28;20059;-61
2021/06/29 06:40:06;;;;;;;9.38;3.58;;;717.10;1305.60;;;;;;5053019;28;20040;-61
2021/06/29 06:42:32;;;;;;;8.15;3.30;;;717.10;1356.80;;;;;;5052681;28;20044;-60
2021/06/29 06:44:58;;;;;;;6.65;3.58;;;717.20;1408.00;;;;;;5053837;28;20033;-60
2021/06/29 06:47:25;;;;;;;8.02;4.00;;;717.30;1459.20;;;;;;5053125;28;20033;-60
2021/06/29 06:49:51;;;;;;;6.18;3.40;;;717.40;1459.20;;;;;;5052463;28;20114;-60
2021/06/29 06:52:18;;;;;;;5.57;3.83;;;717.50;1433.60;;;;;;5052556;28;20029;-60
2021/06/29 06:54:44;;;;;;;6.30;4.07;;;717.50;1408.00;;;;;;5053283;28;20042;-60
2021/06/29 06:57:10;;;;;;;7.00;3.17;;;717.70;1408.00;;;;;;5053003;28;20025;-60
2021/06/29 06:59:38;;;;;;;5.38;2.88;;;742.40;1408.00;;;;;;5052687;28;20036;-60
2021/06/29 07:02:05;;;;;;;5.07;3.15;;;742.40;1382.40;;;;;;5052962;28;20036;-60
2021/06/29 07:04:30;;;;;;;5.80;3.15;;;742.50;1382.40;;;;;;5054173;28;20032;-60
2021/06/29 07:06:56;;;;;;;6.25;3.40;;;742.70;1382.40;;;;;;5055990;28;20029;-60
2021/06/29 07:09:22;;;;;;;5.47;3.53;;;742.70;1408.00;;;;;;5056614;28;20025;-60
2021/06/29 07:11:49;;;;;;;6.30;3.80;;;742.80;1408.00;;;;;;5055889;28;20025;-60
2021/06/29 07:14:15;;;;;;;5.72;4.20;;;742.80;1433.60;;;;;;5038154;28;20044;-60
2021/06/29 07:16:41;;;;;;;6.15;3.90;;;742.80;1459.20;;;;;;5056454;28;20025;-59
2021/06/29 07:19:07;;;;;;;5.68;3.90;;;742.90;1459.20;;;;;;5038477;28;20459;-60
2021/06/29 07:21:33;;;;;;;7.57;4.30;;;742.90;1459.20;;;;;;5056076;28;20104;-60
2021/06/29 07:23:59;;;;;;;7.28;3.95;;;743.00;1459.20;;;;;;5056053;28;20083;-60
2021/06/29 07:26:25;;;;;;;8.68;4.63;;;743.00;1484.80;;;;;;5056247;28;20044;-60
2021/06/29 07:28:51;;;;;;;6.32;4.25;;;743.00;1459.20;;;;;;5056183;28;20073;-59
2021/06/29 07:31:17;;;;;;;7.95;4.30;;;743.10;1484.80;;;;;;5056203;28;20029;-60
2021/06/29 07:33:47;;;;;;;8.75;4.40;;;743.10;1510.40;;;;;;5056231;28;20025;-60
2021/06/29 07:36:15;;;;;;;6.32;4.47;;;743.20;1510.40;;;;;;5056014;28;20021;-60
2021/06/29 07:38:42;;;;;;;7.88;4.30;;;768.00;1510.40;;;;;;5055968;28;20048;-60
2021/06/29 07:41:09;;;;;;;6.40;4.45;;;768.00;1510.40;;;;;;5055650;28;20040;-60
2021/06/29 07:43:34;;;;;;;6.75;4.68;;;768.10;1510.40;;;;;;5061575;28;20031;-60
2021/06/29 07:46:00;;;;;;;7.18;4.55;;;768.30;1484.80;;;;;;5075763;28;20017;-60
2021/06/29 07:48:26;;;;;;;7.07;4.60;;;768.30;1459.20;;;;;;5075935;28;20028;-59
2021/06/29 07:50:52;;;;;;;7.25;4.63;;;768.50;1484.80;;;;;;5075493;28;20024;-59
2021/06/29 07:53:18;;;;;;;10.38;4.60;;;768.80;1433.60;;;;;;5075405;28;20025;-59
2021/06/29 07:55:43;;;;;;;9.80;4.60;;;768.80;1433.60;;;;;;5057829;28;20031;-59
2021/06/29 07:58:09;;;;;;;6.18;4.72;;;768.80;1433.60;;;;;;5075170;28;20032;-60
2021/06/29 08:00:36;;;;;;;10.35;5.38;;;793.60;1484.80;;;;;;5075462;28;20025;-60
2021/06/29 08:03:03;;;;;;;10.13;5.47;;;793.60;1433.60;;;;;;5075347;28;20103;-59
2021/06/29 08:05:29;;;;;;;8.38;5.40;;;793.80;1433.60;;;;;;5058639;28;20447;-59
2021/06/29 08:07:54;;;;;;;8.13;5.13;;;793.90;1408.00;;;;;;5073856;28;20099;-59
2021/06/29 08:10:20;;;;;;;8.63;5.38;;;793.90;1433.60;;;;;;5074251;28;20025;-59
2021/06/29 08:12:46;;;;;;;7.45;5.18;;;794.00;1408.00;;;;;;5074500;28;20028;-59
2021/06/29 08:15:14;;;;;;;7.00;5.60;;;794.10;1408.00;;;;;;5074228;28;20024;-59
2021/06/29 08:17:41;;;;;;;12.25;5.40;;;794.20;1382.40;;;;;;5074742;28;20036;-59
2021/06/29 08:20:08;;;;;;;8.15;5.25;;;794.30;1382.40;;;;;;5074836;28;20070;-59
2021/06/29 08:22:33;;;;;;;9.75;5.57;;;794.30;1382.40;;;;;;5074372;28;20047;-59
2021/06/29 08:24:59;;;;;;;6.97;5.13;;;794.40;1382.40;;;;;;5056517;28;20025;-59
2021/06/29 08:27:25;;;;;;;6.82;5.20;;;794.50;1382.40;;;;;;5062145;28;20028;-59
2021/06/29 08:29:53;;;;;;;6.20;5.60;;;794.50;1382.40;;;;;;5054587;28;20018;-59
2021/06/29 08:32:19;;;;;;;7.43;5.85;;;819.20;1356.80;;;;;;5054566;28;20017;-59
2021/06/29 08:34:45;;;;;;;8.57;5.85;;;819.20;1331.20;;;;;;5053997;28;20154;-59
2021/06/29 08:37:10;;;;;;;10.45;6.20;;;819.20;1356.80;;;;;;5036678;28;20118;-59
2021/06/29 08:39:36;;;;;;;6.85;5.93;;;819.40;1331.20;;;;;;5054485;28;20482;-59
2021/06/29 08:42:02;;;;;;;7.95;5.80;;;819.40;1331.20;;;;;;5053642;28;20041;-59
2021/06/29 08:44:28;;;;;;;7.82;5.72;;;819.50;1331.20;;;;;;5053736;28;20031;-59
2021/06/29 08:46:54;;;;;;;8.02;5.93;;;819.70;1331.20;;;;;;5054282;28;20116;-59
2021/06/29 08:49:20;;;;;;;10.65;6.40;;;819.90;1382.40;;;;;;5053930;28;20024;-59
2021/06/29 08:51:46;;;;;;;8.15;6.40;;;819.90;1331.20;;;;;;5053869;28;20028;-59
2021/06/29 08:54:14;;;;;;;10.38;6.97;;;820.00;1331.20;;;;;;5054559;28;20095;-59
2021/06/29 08:56:40;;;;;;;7.45;6.40;;;820.00;1331.20;;;;;;5054119;28;20021;-59
2021/06/29 08:59:06;;;;;;;11.07;6.47;;;844.80;1331.20;;;;;;5053714;28;20098;-59
2021/06/29 09:01:32;;;;;;;7.97;6.40;;;844.90;1331.20;;;;;;5053722;28;20021;-59
2021/06/29 09:03:57;;;;;;;8.15;6.40;;;845.00;1331.20;;;;;;5036095;28;20409;-59
2021/06/29 09:06:37;;;;;;;7.40;6.47;;;845.10;1356.80;;;;;;5053733;28;20053;-59
2021/06/29 09:09:24;;;;;;;7.15;6.45;;;845.30;1356.80;;;;;;5053643;28;20352;-59
2021/06/29 09:11:50;;;;;;;8.52;6.53;;;845.30;1331.20;;;;;;5035934;28;20517;-59
2021/06/29 09:14:16;;;;;;;10.38;6.90;;;845.50;1305.60;;;;;;5053897;28;20025;-59
2021/06/29 09:16:47;;;;;;;8.85;6.75;;;845.60;1305.60;;;;;;5053356;28;20029;-59
2021/06/29 09:19:33;;;;;;;10.82;6.60;;;845.70;1254.40;;;;;;5053120;28;20036;-59
2021/06/29 09:22:25;;;;;;;8.68;6.60;;;870.50;1280.00;;;;;;5037968;28;20127;-59
2021/06/29 09:24:51;;;;;;;8.60;7.10;;;870.60;1280.00;;;;;;5073231;28;20035;-59
2021/06/29 09:27:44;;;;;;;7.13;6.53;;;870.60;1177.60;;;;;;5054848;28;20036;-60
2021/06/29 09:30:42;;;;;;;8.95;6.80;;;870.70;1177.60;;;;;;5068991;28;20047;-59
2021/06/29 09:33:19;;;;;;;8.27;6.75;;;870.80;1203.20;;;;;;5040183;28;20042;-59
2021/06/29 09:35:49;;;;;;;8.02;6.65;;;870.80;1203.20;;;;;;5053568;28;20116;-59
2021/06/29 09:38:22;;;;;;;8.43;6.38;;;870.90;1177.60;;;;;;5064933;28;20119;-59
2021/06/29 09:40:56;;;;;;;8.77;6.63;;;871.00;1177.60;;;;;;5073144;28;20044;-59
2021/06/29 09:43:22;;;;;;;;;;;871.20;1152.00;;;;;;5073818;28;20592;-58
2021/06/29 09:45:55;;;;;;;7.88;6.32;;;896.00;1152.00;;;;;;5054981;28;19905;-58
2021/06/29 09:48:53;;;;;;;7.47;6.68;;;896.30;1126.40;;;;;;5073316;28;20478;-58
2021/06/29 09:51:20;;;;;;;10.07;6.72;;;896.40;1126.40;;;;;;4968714;28;20035;-58
2021/06/29 09:53:51;;;;;;;7.38;6.53;;;896.50;1126.40;;;;;;4970299;28;20030;-58
2021/06/29 09:56:25;;;;;;;7.70;6.88;;;896.70;1126.40;;;;;;4972710;28;20034;-60
2021/06/29 09:58:54;;;;;;;10.90;6.33;;;896.90;1100.80;;;;;;4972581;28;20528;-58
2021/06/29 10:01:25;;;;;;;7.85;7.07;;;921.60;1100.80;;;;;;4965886;28;20130;-58
2021/06/29 10:03:52;;;;;;;11.02;6.85;;;921.60;1075.20;;;;;;4966689;28;20074;-58
2021/06/29 10:06:20;;;;;;;11.57;7.20;;;921.70;1100.80;;;;;;4953282;29;20028;-58
2021/06/29 10:08:50;;;;;;;7.65;6.85;;;921.70;1075.20;;;;;;4953609;29;20035;-58
2021/06/29 10:11:16;;;;;;;8.60;7.10;;;896.90;1049.60;;;;;;4953344;29;20501;-58
2021/06/29 10:13:52;;;;;;;11.05;7.05;;;921.60;1100.80;;;;;;4953500;29;20039;-58
2021/06/29 10:16:23;;;;;;;9.10;6.60;;;921.80;1075.20;;;;;;4963540;28;20035;-58
2021/06/29 10:19:13;;;;;;;;;;;;;;;;;;;;;
2021/06/29 10:21:24;;;;;;;8.50;7.03;;;921.70;1075.20;;;;;;4972701;28;20038;-58
2021/06/29 10:24:10;;;;;;;8.18;7.20;;;921.90;1049.60;;;;;;4972695;28;20194;-58
2021/06/29 10:26:39;;;;;;;8.80;7.30;;;921.90;1049.60;;;;;;4980278;28;20074;-58
2021/06/29 10:29:09;;;;;;;7.80;6.95;;;921.90;1024.00;;;;;;5073446;28;20085;-58
2021/06/29 10:31:38;;;;;;;8.93;7.43;;;922.20;1049.60;;;;;;5062102;28;20029;-58
2021/06/29 10:34:09;;;;;;;8.15;7.18;;;922.00;1049.60;;;;;;5070078;28;20036;-58
2021/06/29 10:36:41;;;;;;;8.95;7.32;;;922.00;1024.00;;;;;;5072996;28;20059;-58
2021/06/29 10:39:12;;;;;;;9.77;7.60;;;922.00;1024.00;;;;;;5057351;28;20086;-58
2021/06/29 10:41:44;;;;;;;8.43;7.50;;;922.30;1024.00;;;;;;5076660;28;20048;-58
2021/06/29 10:44:13;;;;;;;10.68;7.72;;;922.10;1100.80;;;;;;5076756;28;20389;-58
2021/06/29 10:46:42;;;;;;;9.45;7.47;;;922.20;1075.20;;;;;;5076346;28;20355;-58
2021/06/29 10:49:47;;;;;;;9.07;7.85;;;922.10;1075.20;;;;;;5076767;28;20052;-58
2021/06/29 10:52:27;;;;;;;8.88;7.97;;;922.00;1100.80;;;;;;4966893;28;20034;-57
2021/06/29 10:54:56;;;;;;;10.55;8.70;;;921.90;1100.80;;;;;;4975711;28;20106;-57
2021/06/29 10:57:36;;;;;;;9.85;8.00;;;922.10;1075.20;;;;;;4975746;28;20135;-58
2021/06/29 11:00:25;;;;;;;10.68;9.38;;;922.10;1075.20;;;;;;4975796;28;20564;-58
2021/06/29 11:02:56;;;;;;;10.63;9.60;;;922.20;1075.20;;;;;;4918072;29;20068;-58
2021/06/29 11:05:25;;;;;;;10.20;8.45;;;922.30;1049.60;;;;;;4916504;29;20038;-58
2021/06/29 11:07:51;;;;;;;12.32;9.77;;;922.40;1024.00;;;;;;4916718;29;20060;-58
2021/06/29 11:10:29;;;;;;;12.18;9.77;;;922.50;1024.00;;;;;;4917916;29;20533;-58
2021/06/29 11:12:58;;;;;;;11.65;9.80;;;947.30;998.40;;;;;;4900668;29;20389;-58
2021/06/29 11:15:42;;;;;;;12.02;10.55;;;947.30;1024.00;;;;;;4916432;29;20024;-58
2021/06/29 11:18:10;;;;;;;10.38;9.38;;;947.40;1024.00;;;;;;4916616;29;20016;-58
2021/06/29 11:20:46;;;;;;;10.85;9.77;;;947.40;972.80;;;;;;4916279;29;20036;-58
2021/06/29 11:23:18;;;;;;;10.70;9.60;;;947.30;998.40;;;;;;4969394;28;20069;-58
2021/06/29 11:25:44;;;;;;;10.23;9.15;;;947.60;998.40;;;;;;5002934;28;20018;-58
2021/06/29 11:28:10;;;;;;;11.00;10.05;;;947.80;998.40;;;;;;5002246;28;20117;-58
2021/06/29 11:30:51;;;;;;;12.05;10.75;;;947.80;998.40;;;;;;5003837;28;20033;-58
2021/06/29 11:33:34;;;;;;;11.75;10.65;;;947.90;972.80;;;;;;5001157;28;20053;-58
2021/06/29 11:36:01;;;;;;;14.20;10.48;;;947.90;947.20;;;;;;4991539;28;20030;-58
2021/06/29 11:38:36;;;;;;;13.32;10.35;;;948.00;998.40;;;;;;5008186;28;20018;-58
2021/06/29 11:41:41;;;;;;;11.85;10.70;;;948.00;972.80;;;;;;5066662;28;20068;-57
2021/06/29 11:44:07;;;;;;;11.70;10.57;;;947.90;947.20;;;;;;4968779;28;20065;-58
2021/06/29 11:46:53;;;;;;;11.45;10.40;;;947.90;972.80;;;;;;4967352;28;20058;-57
2021/06/29 11:49:38;;;;;;;12.65;10.30;;;947.90;972.80;;;;;;4946885;28;20039;-58
2021/06/29 11:52:18;;;;;;;11.10;9.93;;;948.00;972.80;;;;;;4971063;28;20019;-57
2021/06/29 11:54:43;;;;;;;10.85;9.85;;;947.90;947.20;;;;;;4965294;28;20066;-58
2021/06/29 11:57:20;;;;;;;11.88;10.45;;;947.60;947.20;;;;;;4964387;28;20554;-58
2021/06/29 11:59:46;;;;;;;11.70;10.55;;;947.60;947.20;;;;;;4956858;28;20027;-57
2021/06/29 12:02:28;;;;;;;11.57;10.55;;;922.40;972.80;;;;;;4956266;28;20092;-57
2021/06/29 12:05:13;;;;;;;11.38;10.27;;;947.40;947.20;;;;;;4965450;28;20027;-57
2021/06/29 12:07:41;;;;;;;11.13;10.00;;;947.60;921.60;;;;;;4964523;28;20031;-58
2021/06/29 12:10:25;;;;;;;12.48;9.65;;;947.40;896.00;;;;;;4966103;28;20484;-57
2021/06/29 12:13:05;;;;;;;10.82;9.60;;;947.50;896.00;;;;;;4968453;28;20428;-58
2021/06/29 12:15:35;;;;;;;10.50;9.50;;;947.80;896.00;;;;;;5041934;28;20037;-57
2021/06/29 12:18:24;;;;;;;10.18;9.27;;;947.90;896.00;;;;;;5063601;28;20055;-57
2021/06/29 12:21:04;;;;;;;9.50;8.60;;;948.00;870.40;;;;;;5065264;28;20025;-57
2021/06/29 12:23:32;;;;;;;8.60;7.80;;;948.00;844.80;;;;;;5064498;28;20032;-57
2021/06/29 12:26:09;;;;;;;9.23;7.57;;;972.80;844.80;;;;;;5063161;28;20112;-57